Time;durP1;ratioP1;P1;durP2;ratioP2;P2;SDS_P1;SDS_P2;PMS_P1;PMS_P2;Temp;Humidity;BMP_temperature;BMP_pressure;BME280_temperature;BME280_humidity;BME280_pressure;Samples;Min_cycle;Max_cycle;Signal;HPM_P1;HPM_P2
2023/04/21 00:01:13;;;;;;;32.75;18.08;;;7.40;99.90;;;;;;5011984;28;20122;-47
2023/04/21 00:03:40;;;;;;;35.33;17.13;;;7.40;99.90;;;;;;5011798;28;20025;-48
2023/04/21 00:06:08;;;;;;;31.13;16.65;;;7.40;99.90;;;;;;5011863;28;20045;-50
2023/04/21 00:08:39;;;;;;;31.88;17.17;;;7.40;99.90;;;;;;5012230;28;20026;-48
2023/04/21 00:11:07;;;;;;;36.55;18.15;;;7.40;99.90;;;;;;5011780;28;20032;-52
2023/04/21 00:13:34;;;;;;;29.17;17.53;;;7.30;99.90;;;;;;5011480;28;20022;-47
2023/04/21 00:16:01;;;;;;;36.08;17.42;;;7.30;99.90;;;;;;5011711;28;20777;-53
2023/04/21 00:18:27;;;;;;;32.25;17.60;;;7.30;99.90;;;;;;5011677;28;20474;-55
2023/04/21 00:20:53;;;;;;;35.83;17.08;;;7.30;99.90;;;;;;5011518;28;20018;-47
2023/04/21 00:23:18;;;;;;;37.00;17.85;;;7.20;99.90;;;;;;5011421;28;20029;-48
2023/04/21 00:25:44;;;;;;;32.05;17.65;;;7.20;99.90;;;;;;5011439;28;20046;-55
2023/04/21 00:28:09;;;;;;;33.08;17.45;;;7.10;99.90;;;;;;5011645;28;20474;-50
2023/04/21 00:30:35;;;;;;;33.47;17.20;;;7.10;99.90;;;;;;5011448;28;20038;-49
2023/04/21 00:33:01;;;;;;;38.97;17.83;;;7.10;99.90;;;;;;5011296;28;20091;-47
2023/04/21 00:35:26;;;;;;;34.42;18.15;;;7.00;99.90;;;;;;5011461;28;20069;-47
2023/04/21 00:37:52;;;;;;;35.38;18.77;;;7.00;99.90;;;;;;5011222;28;20097;-50
2023/04/21 00:40:17;;;;;;;35.03;17.65;;;7.00;99.90;;;;;;5011272;28;20026;-49
2023/04/21 00:42:43;;;;;;;32.20;18.33;;;6.90;99.90;;;;;;5010994;28;20109;-50
2023/04/21 00:45:10;;;;;;;35.35;18.50;;;6.90;99.90;;;;;;5011379;28;20038;-50
2023/04/21 00:47:35;;;;;;;35.47;18.83;;;6.80;99.90;;;;;;5010786;28;20129;-48
2023/04/21 00:50:02;;;;;;;37.90;18.88;;;6.80;99.90;;;;;;5010817;28;20101;-47
2023/04/21 00:52:28;;;;;;;37.83;18.48;;;6.80;99.90;;;;;;5011003;28;20088;-46
2023/04/21 00:54:55;;;;;;;34.58;18.60;;;6.80;99.90;;;;;;5011083;28;20675;-47
2023/04/21 00:57:21;;;;;;;35.35;19.35;;;6.80;99.90;;;;;;5011026;28;20428;-50
2023/04/21 00:59:48;;;;;;;38.25;20.20;;;6.80;99.90;;;;;;5011121;28;20104;-51
2023/04/21 01:02:15;;;;;;;33.35;17.88;;;6.80;99.90;;;;;;5010918;28;20049;-50
2023/04/21 01:04:42;;;;;;;46.38;19.50;;;6.70;99.90;;;;;;5011161;28;20026;-50
2023/04/21 01:07:08;;;;;;;36.58;18.67;;;6.70;99.90;;;;;;5010785;28;20031;-49
2023/04/21 01:09:34;;;;;;;41.20;19.98;;;6.70;99.90;;;;;;5010833;28;20026;-47
2023/04/21 01:12:01;;;;;;;41.95;19.98;;;6.70;99.90;;;;;;5010700;28;20088;-48
2023/04/21 01:14:26;;;;;;;41.95;19.52;;;6.70;99.90;;;;;;5010886;28;20435;-49
2023/04/21 01:16:52;;;;;;;41.65;20.42;;;6.70;99.90;;;;;;5011023;28;20022;-50
2023/04/21 01:19:19;;;;;;;39.42;18.92;;;6.60;99.90;;;;;;5010669;28;20026;-47
2023/04/21 01:21:45;;;;;;;38.40;20.35;;;6.60;99.90;;;;;;5010744;28;20500;-47
2023/04/21 01:24:11;;;;;;;39.47;20.42;;;6.60;99.90;;;;;;5010909;28;20026;-48
2023/04/21 01:26:37;;;;;;;46.85;21.20;;;6.60;99.90;;;;;;5010761;28;20032;-49
2023/04/21 01:29:03;;;;;;;40.35;21.27;;;6.60;99.90;;;;;;5009520;28;20156;-53
2023/04/21 01:31:29;;;;;;;41.42;21.58;;;6.60;99.90;;;;;;5010738;28;20492;-48
2023/04/21 01:33:54;;;;;;;42.05;20.77;;;6.60;99.90;;;;;;5010070;28;20030;-49
2023/04/21 01:36:20;;;;;;;41.53;20.92;;;6.60;99.90;;;;;;5010500;28;20030;-56
2023/04/21 01:38:46;;;;;;;49.88;21.80;;;6.60;99.90;;;;;;5010923;28;20121;-51
2023/04/21 01:41:11;;;;;;;43.80;21.70;;;6.60;99.90;;;;;;5010733;28;20498;-50
2023/04/21 01:43:37;;;;;;;40.17;20.67;;;6.60;99.90;;;;;;5010441;28;20523;-51
2023/04/21 01:46:06;;;;;;;44.85;22.00;;;6.50;99.90;;;;;;5010461;28;20501;-54
2023/04/21 01:48:31;;;;;;;44.33;21.50;;;6.60;99.90;;;;;;5010517;28;20477;-50
2023/04/21 01:50:57;;;;;;;45.13;22.58;;;6.60;99.90;;;;;;5010289;28;20041;-48
2023/04/21 01:53:23;;;;;;;59.38;23.55;;;6.60;99.90;;;;;;5009124;28;20022;-48
2023/04/21 01:55:48;;;;;;;48.97;22.58;;;6.60;99.90;;;;;;5010646;28;20428;-47
2023/04/21 01:58:14;;;;;;;46.15;23.38;;;6.60;99.90;;;;;;5010265;28;20072;-56
2023/04/21 02:00:39;;;;;;;48.83;22.60;;;6.60;99.90;;;;;;5012697;28;20042;-52
2023/04/21 02:03:05;;;;;;;52.17;22.33;;;6.60;99.90;;;;;;5014064;28;20026;-51
2023/04/21 02:05:31;;;;;;;56.88;23.75;;;6.50;99.90;;;;;;5013733;28;20065;-54
2023/04/21 02:07:56;;;;;;;49.92;22.75;;;6.60;99.90;;;;;;5014034;28;20025;-57
2023/04/21 02:10:22;;;;;;;48.45;24.02;;;6.50;99.90;;;;;;5014016;28;20076;-53
2023/04/21 02:12:48;;;;;;;52.10;23.95;;;6.60;99.90;;;;;;5013998;28;20156;-50
2023/04/21 02:15:13;;;;;;;52.33;23.70;;;6.60;99.90;;;;;;5013887;28;20025;-51
2023/04/21 02:17:41;;;;;;;48.75;24.58;;;6.60;99.90;;;;;;5014360;28;20101;-49
2023/04/21 02:20:08;;;;;;;49.10;24.08;;;6.50;99.90;;;;;;5013521;28;20477;-47
2023/04/21 02:22:33;;;;;;;48.65;22.95;;;6.50;99.90;;;;;;5013411;28;20041;-47
2023/04/21 02:24:59;;;;;;;51.88;23.45;;;6.50;99.90;;;;;;5014167;28;20030;-47
2023/04/21 02:27:24;;;;;;;47.53;22.20;;;6.40;99.90;;;;;;5013675;28;20041;-52
2023/04/21 02:29:50;;;;;;;45.42;22.20;;;6.40;99.90;;;;;;5013748;28;20358;-47
2023/04/21 02:32:16;;;;;;;45.80;22.52;;;6.30;99.90;;;;;;5013573;28;20076;-54
2023/04/21 02:34:41;;;;;;;48.47;22.15;;;6.30;99.90;;;;;;5013577;28;20025;-52
2023/04/21 02:37:07;;;;;;;44.08;22.50;;;6.30;99.90;;;;;;5013629;28;20034;-49
2023/04/21 02:39:32;;;;;;;48.65;23.33;;;6.30;99.90;;;;;;5013415;28;20077;-47
2023/04/21 02:41:58;;;;;;;46.60;22.83;;;6.20;99.90;;;;;;5013388;28;20030;-47
2023/04/21 02:44:24;;;;;;;46.22;22.63;;;6.20;99.90;;;;;;5013384;28;20022;-47
2023/04/21 02:46:49;;;;;;;54.08;22.95;;;6.20;99.90;;;;;;5013423;28;20215;-50
2023/04/21 02:49:15;;;;;;;49.72;23.42;;;6.20;99.90;;;;;;5013104;28;20041;-53
2023/04/21 02:51:40;;;;;;;50.83;23.48;;;6.10;99.90;;;;;;5013162;28;20468;-48
2023/04/21 02:54:06;;;;;;;46.92;22.63;;;6.10;99.90;;;;;;5013326;28;20165;-48
2023/04/21 02:56:33;;;;;;;44.42;22.38;;;6.10;99.90;;;;;;5011632;28;20140;-49
2023/04/21 02:58:59;;;;;;;47.45;22.77;;;6.10;99.90;;;;;;5012801;28;20018;-47
2023/04/21 03:01:24;;;;;;;47.13;23.33;;;6.00;99.90;;;;;;5012948;28;20028;-50
2023/04/21 03:03:50;;;;;;;47.97;23.40;;;6.00;99.90;;;;;;5013084;28;20026;-53
2023/04/21 03:06:16;;;;;;;47.13;22.67;;;5.90;99.90;;;;;;5012944;28;20135;-48
2023/04/21 03:08:42;;;;;;;47.13;24.08;;;5.90;99.90;;;;;;5012964;28;20026;-47
2023/04/21 03:11:07;;;;;;;46.42;22.65;;;5.90;99.90;;;;;;5012057;28;20037;-51
2023/04/21 03:13:33;;;;;;;50.38;23.45;;;5.90;99.90;;;;;;5012907;28;20385;-48
2023/04/21 03:15:58;;;;;;;41.78;22.63;;;5.90;99.90;;;;;;5013040;28;20029;-48
2023/04/21 03:18:24;;;;;;;48.13;23.75;;;5.80;99.90;;;;;;5012627;28;20033;-47
2023/04/21 03:20:50;;;;;;;46.42;23.60;;;5.80;99.90;;;;;;5012460;28;20034;-49
2023/04/21 03:23:16;;;;;;;49.55;23.38;;;5.80;99.90;;;;;;5012859;28;20022;-48
2023/04/21 03:25:42;;;;;;;48.90;25.08;;;5.80;99.90;;;;;;5012588;28;20021;-47
2023/04/21 03:28:07;;;;;;;54.22;25.23;;;5.80;99.90;;;;;;5012714;28;20038;-48
2023/04/21 03:30:33;;;;;;;49.85;24.38;;;5.80;99.90;;;;;;5012184;28;20105;-50
2023/04/21 03:32:59;;;;;;;62.40;25.70;;;5.80;99.90;;;;;;5012645;28;20422;-49
2023/04/21 03:35:24;;;;;;;54.17;25.42;;;5.80;99.90;;;;;;5012578;28;20026;-49
2023/04/21 03:37:50;;;;;;;51.75;26.20;;;5.80;99.90;;;;;;5012351;28;20030;-50
2023/04/21 03:40:16;;;;;;;53.17;26.80;;;5.80;99.90;;;;;;5012268;28;20044;-47
2023/04/21 03:42:41;;;;;;;57.70;27.25;;;5.80;99.90;;;;;;5012305;28;20033;-54
2023/04/21 03:45:09;;;;;;;56.70;26.73;;;5.80;99.90;;;;;;5012404;28;20536;-49
2023/04/21 03:47:35;;;;;;;55.42;25.65;;;5.80;99.90;;;;;;5012025;28;20038;-46
2023/04/21 03:50:04;;;;;;;54.65;25.60;;;5.80;99.90;;;;;;5012302;28;20131;-52
2023/04/21 03:52:29;;;;;;;54.33;26.27;;;5.80;99.90;;;;;;5012011;28;20034;-47
2023/04/21 03:54:55;;;;;;;59.30;27.30;;;5.80;99.90;;;;;;5012187;28;20029;-51
2023/04/21 03:57:21;;;;;;;59.05;27.35;;;5.80;99.90;;;;;;5012178;28;20030;-50
2023/04/21 03:59:46;;;;;;;55.42;26.95;;;5.80;99.90;;;;;;5011848;28;20057;-47
2023/04/21 04:02:12;;;;;;;60.30;28.08;;;5.80;99.90;;;;;;5011742;28;20109;-54
2023/04/21 04:04:37;;;;;;;59.65;28.52;;;5.80;99.90;;;;;;5011727;28;20025;-54
2023/04/21 04:07:03;;;;;;;70.95;29.17;;;5.90;99.90;;;;;;5011689;28;20388;-49
2023/04/21 04:09:29;;;;;;;61.13;29.80;;;5.90;99.90;;;;;;5011885;28;20033;-51
2023/04/21 04:11:55;;;;;;;67.32;31.23;;;5.80;99.90;;;;;;5011463;28;20026;-48
2023/04/21 04:14:20;;;;;;;64.82;30.80;;;5.90;99.90;;;;;;5011850;28;20033;-48
2023/04/21 04:16:46;;;;;;;70.00;31.80;;;6.00;99.90;;;;;;5011568;28;20021;-47
2023/04/21 04:19:11;;;;;;;74.03;32.75;;;6.10;99.90;;;;;;5011600;28;20033;-47
2023/04/21 04:21:37;;;;;;;78.57;34.30;;;6.10;99.90;;;;;;5011637;28;20022;-50
2023/04/21 04:24:04;;;;;;;75.68;33.38;;;6.10;99.90;;;;;;5011576;28;20029;-49
2023/04/21 04:26:32;;;;;;;84.47;37.08;;;6.20;99.90;;;;;;5011568;28;20038;-51
2023/04/21 04:29:01;;;;;;;77.15;33.65;;;6.30;99.90;;;;;;5011474;28;20014;-49
2023/04/21 04:31:29;;;;;;;74.50;33.17;;;6.40;99.90;;;;;;5011281;28;20096;-49
2023/04/21 04:33:56;;;;;;;70.30;33.83;;;6.40;99.90;;;;;;5011547;28;20032;-47
2023/04/21 04:36:23;;;;;;;68.88;33.10;;;6.40;99.90;;;;;;5011724;28;20033;-53
2023/04/21 04:38:49;;;;;;;66.97;32.50;;;6.40;99.90;;;;;;5011610;28;20026;-54
2023/04/21 04:41:18;;;;;;;79.00;33.13;;;6.30;99.90;;;;;;5011119;28;20376;-50
2023/04/21 04:43:44;;;;;;;76.57;33.78;;;6.40;99.90;;;;;;5011386;28;20044;-53
2023/04/21 04:46:11;;;;;;;71.53;32.42;;;6.40;99.90;;;;;;5011129;28;20489;-50
2023/04/21 04:48:37;;;;;;;70.15;33.10;;;6.40;99.90;;;;;;5009980;28;20496;-53
2023/04/21 04:51:03;;;;;;;74.35;32.50;;;6.50;99.90;;;;;;5010952;28;20053;-55
2023/04/21 04:53:29;;;;;;;84.88;33.97;;;6.50;99.90;;;;;;5011322;28;20088;-52
2023/04/21 04:55:56;;;;;;;71.95;33.38;;;6.60;99.90;;;;;;5011213;28;20054;-54
2023/04/21 04:58:21;;;;;;;67.57;32.17;;;6.60;99.90;;;;;;5010949;28;20080;-49
2023/04/21 05:00:47;;;;;;;69.97;32.38;;;6.60;99.90;;;;;;5010900;28;20042;-48
2023/04/21 05:03:13;;;;;;;69.00;32.25;;;6.70;99.90;;;;;;5011022;28;20057;-51
2023/04/21 05:05:38;;;;;;;73.93;33.35;;;6.70;99.90;;;;;;5011105;28;20032;-57
2023/04/21 05:08:04;;;;;;;62.55;31.23;;;6.80;99.90;;;;;;5010671;28;20030;-55
2023/04/21 05:10:30;;;;;;;67.47;32.90;;;6.80;99.90;;;;;;5010874;28;20042;-53
2023/04/21 05:12:55;;;;;;;64.85;31.10;;;6.80;99.90;;;;;;5010984;28;20030;-51
2023/04/21 05:15:21;;;;;;;64.50;31.50;;;6.80;99.90;;;;;;5010649;28;20243;-45
2023/04/21 05:17:47;;;;;;;66.10;30.98;;;6.80;99.90;;;;;;5010896;28;20397;-47
2023/04/21 05:20:13;;;;;;;63.35;29.98;;;6.80;99.90;;;;;;5010493;28;20026;-51
2023/04/21 05:22:39;;;;;;;68.95;32.15;;;6.90;99.90;;;;;;5010972;28;20026;-47
2023/04/21 05:25:06;;;;;;;66.43;31.75;;;6.90;99.90;;;;;;5010662;28;20448;-49
2023/04/21 05:27:32;;;;;;;70.03;32.17;;;6.90;99.90;;;;;;5010682;28;20042;-49
2023/04/21 05:29:58;;;;;;;68.47;31.50;;;7.00;99.90;;;;;;5010520;28;20473;-50
2023/04/21 05:32:24;;;;;;;61.30;30.40;;;7.00;99.90;;;;;;5010603;28;20034;-53
2023/04/21 05:34:50;;;;;;;69.30;31.17;;;7.10;99.90;;;;;;5011707;28;20017;-50
2023/04/21 05:37:15;;;;;;;68.57;32.30;;;7.10;99.90;;;;;;5014683;28;20030;-52
2023/04/21 05:39:41;;;;;;;61.15;29.55;;;7.20;99.90;;;;;;5014472;28;20515;-57
2023/04/21 05:42:09;;;;;;;62.45;29.13;;;7.20;99.90;;;;;;5014244;28;20022;-49
2023/04/21 05:44:35;;;;;;;56.22;29.55;;;7.20;99.90;;;;;;5014250;28;20034;-56
2023/04/21 05:47:00;;;;;;;64.55;29.55;;;7.30;99.90;;;;;;5014419;28;20061;-54
2023/04/21 05:49:26;;;;;;;55.38;29.58;;;7.40;99.90;;;;;;5014369;28;20018;-50
2023/04/21 05:51:51;;;;;;;57.17;28.88;;;7.50;99.90;;;;;;5014141;28;20391;-54
2023/04/21 05:54:17;;;;;;;52.05;27.10;;;7.60;99.90;;;;;;5014282;28;20046;-47
2023/04/21 05:56:43;;;;;;;52.63;28.67;;;7.60;99.90;;;;;;5014153;28;20029;-48
2023/04/21 05:59:08;;;;;;;52.72;28.75;;;7.70;99.90;;;;;;5014073;28;20096;-47
2023/04/21 06:01:34;;;;;;;54.05;27.40;;;7.80;99.90;;;;;;5012547;28;20057;-48
2023/04/21 06:04:00;;;;;;;52.25;27.58;;;7.90;99.90;;;;;;5014107;28;20030;-48
2023/04/21 06:06:26;;;;;;;54.05;29.10;;;7.90;99.90;;;;;;5014044;28;20038;-51
2023/04/21 06:08:52;;;;;;;48.53;26.83;;;8.00;99.90;;;;;;5014153;28;20473;-49
2023/04/21 06:11:18;;;;;;;47.20;27.05;;;8.10;99.90;;;;;;5013885;28;20034;-51
2023/04/21 06:13:43;;;;;;;51.70;27.70;;;8.10;99.90;;;;;;5012705;28;20025;-49
2023/04/21 06:16:09;;;;;;;47.55;25.85;;;8.20;99.90;;;;;;5013904;28;20036;-49
2023/04/21 06:18:35;;;;;;;43.47;24.58;;;8.20;99.90;;;;;;5013878;28;20026;-52
2023/04/21 06:21:00;;;;;;;47.38;24.88;;;8.30;99.90;;;;;;5013931;28;20384;-54
2023/04/21 06:23:26;;;;;;;48.22;26.52;;;8.30;99.90;;;;;;5013429;28;20444;-49
2023/04/21 06:26:05;;;;;;;49.42;26.10;;;8.20;99.90;;;;;;5013742;28;20030;-50
2023/04/21 06:28:35;;;;;;;47.63;25.02;;;8.30;99.90;;;;;;5013809;28;20036;-50
2023/04/21 06:31:01;;;;;;;;;;;8.30;99.90;;;;;;5014017;28;20034;-52
2023/04/21 06:33:28;;;;;;;49.55;25.83;;;8.30;99.90;;;;;;5013245;28;20387;-52
2023/04/21 06:35:54;;;;;;;49.92;26.33;;;8.30;99.90;;;;;;5013603;28;20021;-50
2023/04/21 06:38:20;;;;;;;47.03;25.75;;;8.30;99.90;;;;;;5013661;28;20096;-51
2023/04/21 06:40:46;;;;;;;46.08;25.48;;;8.30;99.90;;;;;;5013201;28;20105;-50
2023/04/21 06:43:11;;;;;;;47.50;26.08;;;8.30;99.90;;;;;;5013455;28;20033;-53
2023/04/21 06:45:37;;;;;;;53.35;25.95;;;8.40;99.90;;;;;;5011985;28;20491;-49
2023/04/21 06:48:03;;;;;;;48.00;24.98;;;8.30;99.90;;;;;;5012874;28;20045;-52
2023/04/21 06:50:28;;;;;;;48.60;26.27;;;8.30;99.90;;;;;;5013349;28;20101;-56
2023/04/21 06:52:54;;;;;;;46.00;25.58;;;8.30;99.90;;;;;;5012803;28;20026;-49
2023/04/21 06:55:20;;;;;;;45.05;25.75;;;8.40;99.90;;;;;;5012941;28;20018;-48
2023/04/21 06:57:45;;;;;;;53.65;27.80;;;8.30;99.90;;;;;;5012759;28;20028;-53
2023/04/21 07:00:12;;;;;;;53.90;27.50;;;8.40;99.90;;;;;;5013015;28;20058;-48
2023/04/21 07:02:38;;;;;;;53.90;26.40;;;8.30;99.90;;;;;;5011938;28;20623;-46
2023/04/21 07:05:04;;;;;;;47.00;24.95;;;8.40;99.90;;;;;;5012814;28;20101;-52
2023/04/21 07:07:29;;;;;;;55.20;26.00;;;8.50;99.90;;;;;;5012897;28;20038;-52
2023/04/21 07:09:55;;;;;;;44.22;23.08;;;8.60;99.90;;;;;;5011851;28;20100;-50
2023/04/21 07:12:20;;;;;;;42.78;24.67;;;8.70;99.90;;;;;;5011421;28;20358;-52
2023/04/21 07:14:46;;;;;;;44.42;23.98;;;8.80;99.90;;;;;;5012396;28;20061;-51
2023/04/21 07:17:12;;;;;;;44.35;23.52;;;8.80;99.90;;;;;;5012741;28;20026;-52
2023/04/21 07:19:38;;;;;;;41.70;23.38;;;8.90;99.90;;;;;;5012779;28;20034;-48
2023/04/21 07:22:04;;;;;;;38.10;21.90;;;9.00;99.90;;;;;;5012311;28;20037;-52
2023/04/21 07:24:30;;;;;;;44.70;22.70;;;8.90;99.90;;;;;;5012510;28;20026;-53
2023/04/21 07:26:56;;;;;;;38.15;22.50;;;9.00;99.90;;;;;;5012125;28;20045;-49
2023/04/21 07:29:22;;;;;;;37.45;21.23;;;9.00;99.90;;;;;;5012540;28;20018;-49
2023/04/21 07:31:47;;;;;;;36.45;19.90;;;8.90;99.90;;;;;;5011021;28;20032;-49
2023/04/21 07:34:13;;;;;;;31.83;20.33;;;8.80;99.90;;;;;;5012300;28;20033;-54
2023/04/21 07:36:39;;;;;;;30.88;18.13;;;8.80;99.90;;;;;;5011941;28;20044;-52
2023/04/21 07:39:05;;;;;;;34.15;19.17;;;8.70;99.90;;;;;;5012094;28;20026;-49
2023/04/21 07:41:31;;;;;;;27.30;16.17;;;8.70;99.90;;;;;;5010797;28;20080;-53
2023/04/21 07:43:56;;;;;;;26.73;15.57;;;8.80;99.90;;;;;;5011263;28;20493;-52
2023/04/21 07:46:28;;;;;;;28.20;16.17;;;8.70;99.90;;;;;;5012224;28;20034;-52
2023/04/21 07:48:57;;;;;;;18.20;12.38;;;8.70;99.90;;;;;;5007595;28;20014;-52
2023/04/21 07:51:23;;;;;;;17.50;11.18;;;8.70;99.90;;;;;;5008204;28;20095;-46
2023/04/21 07:53:49;;;;;;;16.23;10.73;;;8.60;99.90;;;;;;4999043;28;20474;-45
2023/04/21 07:56:15;;;;;;;15.00;9.75;;;8.60;99.90;;;;;;5012050;28;20021;-55
2023/04/21 07:58:41;;;;;;;14.07;9.15;;;8.40;99.90;;;;;;5011681;28;20048;-53
2023/04/21 08:01:07;;;;;;;16.13;9.20;;;8.30;99.90;;;;;;5011169;28;20493;-51
2023/04/21 08:03:32;;;;;;;13.27;9.07;;;8.30;99.90;;;;;;5011564;28;20029;-53
2023/04/21 08:05:58;;;;;;;13.05;8.73;;;8.30;99.90;;;;;;5011879;28;20180;-50
2023/04/21 08:08:24;;;;;;;15.05;9.05;;;8.30;99.90;;;;;;5010587;28;20030;-46
2023/04/21 08:10:49;;;;;;;12.77;9.60;;;8.20;99.90;;;;;;5012234;28;20034;-51
2023/04/21 08:13:15;;;;;;;13.13;8.75;;;8.20;99.90;;;;;;5011562;28;20036;-46
2023/04/21 08:15:41;;;;;;;14.95;8.68;;;8.20;99.90;;;;;;5011949;28;20033;-48
2023/04/21 08:18:07;;;;;;;13.90;8.20;;;8.20;99.90;;;;;;5011814;28;20382;-54
2023/04/21 08:20:33;;;;;;;12.77;8.32;;;8.20;99.90;;;;;;5011764;28;20499;-48
2023/04/21 08:22:58;;;;;;;11.68;8.57;;;8.00;99.90;;;;;;5011377;28;20030;-48
2023/04/21 08:25:24;;;;;;;15.45;8.93;;;8.00;99.90;;;;;;5011803;28;20022;-50
2023/04/21 08:27:50;;;;;;;13.57;9.13;;;7.90;99.90;;;;;;5011741;28;20124;-50
2023/04/21 08:30:15;;;;;;;16.58;9.57;;;7.90;99.90;;;;;;5011598;28;20030;-49
2023/04/21 08:32:41;;;;;;;15.00;9.32;;;7.80;99.90;;;;;;5011332;28;20073;-53
2023/04/21 08:35:07;;;;;;;14.15;9.57;;;7.80;99.90;;;;;;5011355;28;20022;-46
2023/04/21 08:37:36;;;;;;;15.65;10.20;;;7.80;99.90;;;;;;5011546;28;20030;-47
2023/04/21 08:40:03;;;;;;;14.45;10.13;;;7.80;99.90;;;;;;5011557;28;20064;-46
2023/04/21 08:42:29;;;;;;;15.82;10.55;;;7.70;99.90;;;;;;5011287;28;20385;-51
2023/04/21 08:44:55;;;;;;;14.27;10.50;;;7.70;99.90;;;;;;5011452;28;20465;-48
2023/04/21 08:47:23;;;;;;;14.32;10.48;;;7.60;99.90;;;;;;5011143;28;20401;-51
2023/04/21 08:49:50;;;;;;;15.13;10.75;;;7.60;99.90;;;;;;5009963;28;20030;-49
2023/04/21 08:52:17;;;;;;;18.70;11.43;;;7.60;99.90;;;;;;5010978;28;20061;-59
2023/04/21 08:54:43;;;;;;;16.92;12.02;;;7.70;99.90;;;;;;5011210;28;20033;-60
2023/04/21 08:57:08;;;;;;;16.58;10.77;;;7.70;99.90;;;;;;5011156;28;20032;-60
2023/04/21 08:59:34;;;;;;;17.58;11.23;;;7.70;99.90;;;;;;5010981;28;20046;-57
2023/04/21 09:02:17;;;;;;;17.58;10.88;;;7.80;99.90;;;;;;5010998;28;20040;-60
2023/04/21 09:04:50;;;;;;;15.35;11.23;;;7.80;99.90;;;;;;5011204;28;20084;-60
2023/04/21 09:07:34;;;;;;;18.17;10.75;;;7.90;99.90;;;;;;5008815;28;20041;-56
2023/04/21 09:10:01;;;;;;;13.98;10.40;;;8.00;99.90;;;;;;5008416;28;20064;-57
2023/04/21 09:12:28;;;;;;;16.45;10.30;;;8.10;99.90;;;;;;5000756;28;20029;-56
2023/04/21 09:14:54;;;;;;;15.43;10.32;;;8.30;99.90;;;;;;5010798;28;20057;-56
2023/04/21 09:17:32;;;;;;;14.88;9.93;;;8.40;99.90;;;;;;5009146;28;20021;-55
2023/04/21 09:20:16;;;;;;;15.05;10.70;;;8.50;99.90;;;;;;5010585;28;20079;-58
2023/04/21 09:22:42;;;;;;;12.75;9.27;;;8.60;99.90;;;;;;5010810;28;20084;-59
2023/04/21 09:25:08;;;;;;;15.77;9.35;;;8.60;99.90;;;;;;5009355;28;20092;-59
2023/04/21 09:27:37;;;;;;;14.55;8.80;;;8.70;99.90;;;;;;5010700;28;20156;-56
2023/04/21 09:30:05;;;;;;;11.50;8.77;;;8.60;99.90;;;;;;5010694;28;20393;-56
2023/04/21 09:32:39;;;;;;;12.00;8.55;;;8.40;99.90;;;;;;5009911;28;20026;-55
2023/04/21 09:35:13;;;;;;;11.32;8.50;;;8.40;99.90;;;;;;5010806;28;20075;-56
2023/04/21 09:37:43;;;;;;;12.80;8.63;;;8.40;99.90;;;;;;5010229;28;20018;-56
2023/04/21 09:40:13;;;;;;;13.55;9.00;;;8.30;99.90;;;;;;5011160;28;20030;-55
2023/04/21 09:42:38;;;;;;;12.13;8.60;;;8.40;99.90;;;;;;5010233;28;20465;-57
2023/04/21 09:45:04;;;;;;;11.35;8.50;;;8.40;99.90;;;;;;5010710;28;20037;-57
2023/04/21 09:47:38;;;;;;;12.88;8.32;;;8.40;99.90;;;;;;5009899;28;20034;-57
2023/04/21 09:50:07;;;;;;;11.38;8.43;;;8.40;99.90;;;;;;5002009;28;20022;-54
2023/04/21 09:52:33;;;;;;;12.93;8.82;;;8.50;99.90;;;;;;5010134;28;20108;-59
2023/04/21 09:55:03;;;;;;;12.20;8.20;;;8.50;99.90;;;;;;5010630;28;20014;-59
2023/04/21 09:57:31;;;;;;;14.95;8.60;;;8.60;99.90;;;;;;5010667;28;20040;-57
2023/04/21 10:00:09;;;;;;;12.70;8.32;;;8.70;99.90;;;;;;5010585;28;20513;-59
2023/04/21 10:02:41;;;;;;;10.93;7.82;;;9.00;99.90;;;;;;5010097;28;20030;-58
2023/04/21 10:05:08;;;;;;;11.60;7.18;;;9.10;99.90;;;;;;5008187;28;20026;-58
2023/04/21 10:07:34;;;;;;;10.80;6.88;;;9.30;99.90;;;;;;5010437;28;20038;-56
2023/04/21 10:10:00;;;;;;;10.80;7.20;;;9.40;99.90;;;;;;5010218;28;20384;-58
2023/04/21 10:12:27;;;;;;;10.40;7.28;;;9.50;99.90;;;;;;5001098;28;20018;-55
2023/04/21 10:14:56;;;;;;;9.77;7.05;;;9.60;99.90;;;;;;5008445;28;20022;-52
2023/04/21 10:17:24;;;;;;;9.38;7.15;;;9.80;99.90;;;;;;5010855;28;20082;-53
2023/04/21 10:19:56;;;;;;;9.43;6.72;;;9.80;99.90;;;;;;4999806;28;20035;-54
2023/04/21 10:22:28;;;;;;;10.88;7.32;;;9.80;99.90;;;;;;5002013;28;20032;-54
2023/04/21 10:24:55;;;;;;;9.60;7.18;;;9.90;99.90;;;;;;5013393;28;20061;-54
2023/04/21 10:27:50;;;;;;;10.35;7.38;;;10.10;99.90;;;;;;5013669;28;20080;-57
2023/04/21 10:30:21;;;;;;;9.15;7.07;;;10.20;99.90;;;;;;5000866;28;20105;-53
2023/04/21 10:32:47;;;;;;;8.45;6.43;;;10.30;99.90;;;;;;5013507;28;20030;-55
2023/04/21 10:35:20;;;;;;;11.95;7.05;;;10.30;99.90;;;;;;5013510;28;20032;-54
2023/04/21 10:37:50;;;;;;;8.27;6.55;;;10.60;99.90;;;;;;5012890;28;20034;-53
2023/04/21 10:40:35;;;;;;;8.25;6.40;;;10.90;99.90;;;;;;5013329;28;20022;-51
2023/04/21 10:43:04;;;;;;;7.68;5.97;;;11.20;99.90;;;;;;5013343;28;20025;-52
2023/04/21 10:45:31;;;;;;;7.50;5.50;;;11.70;99.90;;;;;;5011819;28;20034;-52
2023/04/21 10:48:00;;;;;;;7.15;5.28;;;12.10;99.90;;;;;;5013351;28;20034;-50
2023/04/21 10:50:30;;;;;;;7.77;4.93;;;12.40;99.90;;;;;;5011641;28;20164;-50
2023/04/21 10:53:10;;;;;;;8.32;5.78;;;12.40;99.90;;;;;;5012530;28;20279;-51
2023/04/21 10:55:36;;;;;;;7.40;5.78;;;12.40;99.90;;;;;;5012957;28;20103;-48
2023/04/21 10:58:10;;;;;;;8.27;6.45;;;12.50;99.90;;;;;;5012744;28;20413;-57
2023/04/21 11:00:39;;;;;;;8.50;5.95;;;12.40;99.90;;;;;;5011834;28;20393;-56
2023/04/21 11:03:06;;;;;;;7.90;6.18;;;12.40;99.90;;;;;;5009800;28;20026;-54
2023/04/21 11:05:35;;;;;;;9.50;6.88;;;12.50;99.90;;;;;;4997649;28;20133;-52
2023/04/21 11:08:10;;;;;;;7.32;5.95;;;12.40;99.90;;;;;;5008868;28;20046;-54
2023/04/21 11:10:42;;;;;;;8.75;6.47;;;12.10;99.90;;;;;;5012765;28;20030;-50
2023/04/21 11:13:08;;;;;;;8.23;6.72;;;12.20;99.90;;;;;;5012780;28;20053;-57
2023/04/21 11:15:34;;;;;;;10.02;6.60;;;12.30;99.90;;;;;;5027876;28;20187;-58
2023/04/21 11:17:59;;;;;;;8.50;6.30;;;12.30;99.90;;;;;;5012275;28;20026;-55
2023/04/21 11:20:26;;;;;;;9.07;6.88;;;12.40;99.90;;;;;;5012599;28;20054;-58
2023/04/21 11:22:55;;;;;;;8.00;6.57;;;12.60;99.90;;;;;;5012158;28;20486;-48
2023/04/21 11:25:20;;;;;;;8.75;6.38;;;12.60;99.90;;;;;;5012662;28;20068;-56
2023/04/21 11:27:56;;;;;;;7.38;5.65;;;12.80;99.90;;;;;;5011823;28;20042;-50
2023/04/21 11:30:32;;;;;;;8.15;6.22;;;12.80;99.90;;;;;;5012232;28;20469;-50
2023/04/21 11:32:58;;;;;;;7.75;5.78;;;12.90;99.90;;;;;;5011656;28;20043;-52
2023/04/21 11:35:24;;;;;;;7.95;5.68;;;12.80;99.90;;;;;;5012527;28;20014;-51
2023/04/21 11:37:51;;;;;;;7.72;6.00;;;12.80;99.90;;;;;;5012067;28;20026;-52
2023/04/21 11:40:17;;;;;;;7.53;5.97;;;12.80;99.90;;;;;;5012260;28;20102;-52
2023/04/21 11:42:43;;;;;;;7.75;6.00;;;12.80;99.90;;;;;;5012142;28;20030;-51
2023/04/21 11:45:17;;;;;;;7.93;5.60;;;12.80;99.90;;;;;;5012328;28;20385;-53
2023/04/21 11:47:42;;;;;;;7.75;6.35;;;13.20;99.90;;;;;;5012021;28;20046;-57
2023/04/21 11:50:09;;;;;;;8.02;5.68;;;13.20;99.90;;;;;;5023779;28;20112;-54
2023/04/21 11:52:36;;;;;;;8.60;6.07;;;13.60;99.90;;;;;;5012113;28;20076;-54
2023/04/21 11:55:01;;;;;;;6.82;5.35;;;13.80;99.90;;;;;;5012069;28;20101;-51
2023/04/21 11:57:28;;;;;;;8.18;5.55;;;14.00;99.90;;;;;;5011840;28;20117;-49
2023/04/21 11:59:58;;;;;;;8.10;6.35;;;14.30;99.90;;;;;;5011865;28;20386;-51
2023/04/21 12:02:28;;;;;;;8.45;5.85;;;14.90;99.90;;;;;;5012009;28;20060;-48
2023/04/21 12:05:01;;;;;;;6.78;5.20;;;15.40;99.90;;;;;;5011961;28;20076;-57
2023/04/21 12:07:31;;;;;;;6.65;5.47;;;15.90;96.90;;;;;;5011658;28;20065;-49
2023/04/21 12:09:59;;;;;;;6.55;5.50;;;16.00;97.80;;;;;;5011818;28;20141;-48
2023/04/21 12:12:25;;;;;;;8.05;6.03;;;16.60;95.30;;;;;;5011620;28;20481;-55
2023/04/21 12:14:52;;;;;;;7.40;5.35;;;16.40;95.20;;;;;;5011606;28;20026;-54
2023/04/21 12:17:18;;;;;;;7.30;5.78;;;17.30;96.50;;;;;;5011105;28;20554;-54
2023/04/21 12:19:43;;;;;;;7.07;4.93;;;18.30;96.40;;;;;;5011759;28;20076;-49
2023/04/21 12:22:14;;;;;;;7.25;5.50;;;18.90;89.60;;;;;;5011965;28;20021;-51
2023/04/21 12:24:40;;;;;;;6.75;5.32;;;20.20;90.30;;;;;;5011757;28;20038;-53
2023/04/21 12:27:07;;;;;;;6.18;5.03;;;20.70;84.60;;;;;;5011272;28;20030;-50
2023/04/21 12:29:37;;;;;;;6.25;4.97;;;21.40;73.70;;;;;;5011401;28;20044;-56
2023/04/21 12:32:04;;;;;;;6.00;5.25;;;22.00;77.30;;;;;;5010188;28;20034;-50
2023/04/21 12:34:29;;;;;;;6.50;5.10;;;22.10;72.30;;;;;;5011351;28;20053;-49
2023/04/21 12:36:55;;;;;;;6.32;5.25;;;21.60;66.40;;;;;;5010853;28;20465;-53
2023/04/21 12:39:21;;;;;;;6.72;5.20;;;21.40;72.50;;;;;;5011309;28;20029;-48